Portada
METAR-TAF:

METAR-TAF

Aeropuertos :

Aeropuerto de Helsinki-Vantaa

Helsinki, Finlandia

latitud: 60-19N, longitud: 024-58E, altitud: 51 m

Observación

El informe se hizo hace 21 minutos, a las 14:20 UTC
Viento 8 kt del sureste
Temperatura 20°C
Humedad 26%
Presión 1026 hPa
Visibilidad 10 km o más
sin nubes por debajo de 1500 m y sin presencia de cumulonimbus.

METAR: EFHK 241420Z 13008KT CAVOK 20/M00 Q1026 NOSIG

Hora: 17:41 (14:41 UTC)

Pronóstico

El informe se hizo hace 3 horas y 14 minutos, a las 11:27 UTC
Pronóstico válido del 24 a las 12 UTC al 25 a las 12 UTC
Viento 10 kt del sur-sureste
Visibilidad 10 km o más
sin nubes por debajo de 1500 m y sin presencia de cumulonimbus.
Evolucionando progresivamente
del 24 a las 16 UTC al 24 a las 18 UTC
Viento 5 kt del este

TAF: EFHK 241127Z 2412/2512 15010KT CAVOK BECMG 2416/2418 09005KT

Observaciones y pronósticos meteorológicos de más de 4000 aeropuertos (mensajes METAR y TAF).

Los puntos amarillos y rojos representan las estaciones disponibles.

Ponga el ratón en el punto deseado para ver el nombre de la estación.

Haga clic para ver las observaciones y los pronósticos meteorológicos.

Para cambiar el mapa : haga clic en los botones verdes con una cruz de color negro para hacer un zoom, en el botón verde con un guión para alejar o en las flechas verdes para mapas adyacentes.


METAR-TAF: